Longmont, CO (80501)

11:27 PM MST on February 07, 2016 (GMT -0700)
Stoney Ridge | | Change Station
CLOSE
Current Station
Personal Weather Station
Location: Longmont, CO
Elevation: 5062 ft
Nearby Weather Stations

Elev 5062 ft 40.19 °N, 105.09 °W | Updated 20 seconds ago

Clear
Clear
22.9 °F
Feels Like 23 °F
N
0.2
Wind Variable Wind from SW
Gusts 2.5 mph

Today
High -- | Low -- °F
--% Chance of Precip.
Yesterday
High -- | Low -- °F
Precip. -- in
Pressure 30.42 in
Visibility 10.0 miles
Clouds Overcast 10000 ft
Windchill 23 °F
Dew Point 16 °F
Humidity 75%
Rainfall 0.00 in
Snow Depth Not available.
7:03 AM 5:26 PM
Waning Crescent, 0% visible
METAR KLMO 080614Z AUTO 22005KT 10SM OVC100 M05/M07 A3042 RMK AO2 T10491075
Pressure 30.42 in
Visibility 10.0 miles
Clouds Overcast 10000 ft
Windchill 23 °F
Dew Point 16 °F
Humidity 75%
Rainfall 0.00 in
Snow Depth Not available.
7:03 AM 5:26 PM
Waning Crescent, 0% visible
METAR KLMO 080614Z AUTO 22005KT 10SM OVC100 M05/M07 A3042 RMK AO2 T10491075

10-Day Weather Forecast

Almanac

Astronomy

Feb. 07, 2016 Rise Set
Actual Time
Civil Twilight
Nautical Twilight
Astronomical Twilight
Moon
Length of Visible Light
Length of Day
Tomorrow will be .
, % of the Moon is Illuminated

Today's Extremes

State Highs State Lows

Community

WunderPhotos

Upload Photos

1,891,393 photos uploaded!

WunderBlog® & News

Nearby

Air Quality

  Air Quality AQ Index Pollutant
Not available.

Snow Depth

Station Depth Elevation

Earthquake Activity

City Distance Mag. Time & Date
Minimum magnitude displayed is 2.5.

Coastal Water Temperatures

Place Temperature

Stations

Nearby Weather Stations

Station Location Temp. Windchill Dew Point Humidity Wind Precip. Elev Updated Type
                   

Watches & Warnings

There are currently no watches in effect.